Time;durP1;ratioP1;P1;durP2;ratioP2;P2;SDS_P1;SDS_P2;PMS_P1;PMS_P2;Temp;Humidity;BMP_temperature;BMP_pressure;BME280_temperature;BME280_humidity;BME280_pressure;Samples;Min_cycle;Max_cycle;Signal;HPM_P1;HPM_P2
2022/06/11 00:03:30;;;;;;;;;;;20.10;1.00;;;;;;10291229;28;85677;-60
2022/06/11 00:08:31;;;;;;;;;;;20.10;1.00;;;;;;10290318;28;85069;-59
2022/06/11 00:13:32;;;;;;;;;;;20.10;1.00;;;;;;10274328;23;84105;-52
2022/06/11 00:18:34;;;;;;;;;;;20.10;1.00;;;;;;10262459;28;85815;-47
2022/06/11 00:23:35;;;;;;;;;;;20.00;1.00;;;;;;10247095;28;84896;-50
2022/06/11 00:28:35;;;;;;;;;;;20.00;1.00;;;;;;10247302;28;85036;-51
2022/06/11 00:33:36;;;;;;;;;;;20.00;1.00;;;;;;10247326;28;84912;-50
2022/06/11 00:38:38;;;;;;;;;;;19.90;1.00;;;;;;10247236;28;84993;-55
2022/06/11 00:43:39;;;;;;;;;;;19.90;1.00;;;;;;10246346;28;84139;-50
2022/06/11 00:48:41;;;;;;;;;;;19.90;1.00;;;;;;10246072;28;84884;-50
2022/06/11 00:53:50;;;;;;;;;;;19.90;1.00;;;;;;10244801;28;86165;-46
2022/06/11 00:58:52;;;;;;;;;;;19.90;1.00;;;;;;10246252;28;84173;-47
2022/06/11 01:03:55;;;;;;;;;;;19.90;1.00;;;;;;10245520;28;84913;-47
2022/06/11 01:09:00;;;;;;;;;;;19.80;1.00;;;;;;10243897;28;84939;-47
2022/06/11 01:14:04;;;;;;;;;;;19.90;1.00;;;;;;10245330;28;84287;-50
2022/06/11 01:19:23;;;;;;;;;;;19.90;1.00;;;;;;10245574;28;84763;-46
2022/06/11 01:24:35;;;;;;;;;;;19.80;1.00;;;;;;10244843;28;84034;-50
2022/06/11 01:29:54;;;;;;;;;;;19.70;1.00;;;;;;10243710;28;85094;-48
2022/06/11 01:35:10;;;;;;;;;;;19.60;1.00;;;;;;10245191;28;84959;-47
2022/06/11 01:40:11;;;;;;;;;;;19.60;1.00;;;;;;10243930;28;85128;-48
2022/06/11 01:45:29;;;;;;;;;;;19.50;1.00;;;;;;10244896;28;84916;-47
2022/06/11 01:50:32;;;;;;;;;;;19.50;1.00;;;;;;10244386;28;84162;-47
2022/06/11 01:55:42;;;;;;;;;;;19.50;1.00;;;;;;10245784;28;84960;-48
2022/06/11 02:00:47;;;;;;;;;;;19.50;1.00;;;;;;10251369;28;84801;-48
2022/06/11 02:05:54;;;;;;;;;;;19.50;1.00;;;;;;10251658;28;84910;-50
2022/06/11 02:11:00;;;;;;;;;;;19.40;1.00;;;;;;10249910;28;87230;-47
2022/06/11 02:16:00;;;;;;;;;;;19.50;1.00;;;;;;10250672;28;85031;-50
2022/06/11 02:21:04;;;;;;;;;;;19.40;1.00;;;;;;10250839;28;84866;-51
2022/06/11 02:26:10;;;;;;;;;;;19.40;1.00;;;;;;10250133;28;86034;-50
2022/06/11 02:31:13;;;;;;;;;;;19.30;1.00;;;;;;10250553;28;84868;-51
2022/06/11 02:36:17;;;;;;;;;;;19.30;1.00;;;;;;10250501;28;84144;-44
2022/06/11 02:41:20;;;;;;;;;;;19.20;1.00;;;;;;10250336;28;84044;-53
2022/06/11 02:51:40;;;;;;;;;;;18.90;1.00;;;;;;10217409;28;84589;-54
2022/06/11 02:56:41;;;;;;;;;;;18.80;1.00;;;;;;10209582;28;84161;-47
2022/06/11 03:01:41;;;;;;;;;;;18.80;1.00;;;;;;10209517;28;84976;-52
2022/06/11 03:06:43;;;;;;;;;;;18.70;1.00;;;;;;10210478;28;84168;-49
2022/06/11 03:11:43;;;;;;;;;;;18.60;17.60;;;;;;10236757;28;84297;-49
2022/06/11 03:16:44;;;;;;;;;;;18.60;23.70;;;;;;10247357;28;84277;-53
2022/06/11 03:21:46;;;;;;;;;;;18.50;54.40;;;;;;10237291;28;85421;-48
2022/06/11 03:26:47;;;;;;;;;;;18.40;57.60;;;;;;10234432;28;85613;-46
2022/06/11 03:31:48;;;;;;;;;;;18.30;90.50;;;;;;10227570;28;84832;-48
2022/06/11 03:36:52;;;;;;;;;;;18.30;99.90;;;;;;10227330;28;84008;-49
2022/06/11 03:41:53;;;;;;;;;;;18.10;99.90;;;;;;10225270;28;84265;-47
2022/06/11 03:46:53;;;;;;;;;;;18.00;99.90;;;;;;10226355;28;84861;-48
2022/06/11 03:51:54;;;;;;;;;;;18.00;99.90;;;;;;10227982;28;85050;-47
2022/06/11 03:56:55;;;;;;;;;;;18.00;99.90;;;;;;10222272;28;85348;-47
2022/06/11 04:01:56;;;;;;;;;;;17.90;99.90;;;;;;10226484;28;84706;-47
2022/06/11 04:06:57;;;;;;;;;;;17.90;99.90;;;;;;10226036;28;84799;-45
2022/06/11 04:11:59;;;;;;;;;;;17.70;99.90;;;;;;10234520;28;85159;-50
2022/06/11 04:17:05;;;;;;;;;;;17.80;99.90;;;;;;10244438;28;84985;-45
2022/06/11 04:22:06;;;;;;;;;;;17.90;99.90;;;;;;10239786;28;84981;-47
2022/06/11 04:27:08;;;;;;;;;;;17.90;99.90;;;;;;10248243;28;84222;-52
2022/06/11 04:32:10;;;;;;;;;;;17.90;99.90;;;;;;10246157;28;84017;-47
2022/06/11 04:37:14;;;;;;;;;;;18.00;99.90;;;;;;10246297;28;84363;-47
2022/06/11 04:42:15;;;;;;;;;;;18.10;99.90;;;;;;10245547;28;84899;-49
2022/06/11 04:47:18;;;;;;;;;;;18.10;88.90;;;;;;10246250;28;84866;-47
2022/06/11 04:52:19;;;;;;;;;;;18.10;94.10;;;;;;10245192;28;85067;-49
2022/06/11 04:57:20;;;;;;;;;;;18.10;91.30;;;;;;10244742;28;85239;-50
2022/06/11 05:02:22;;;;;;;;;;;18.30;41.40;;;;;;10241824;28;84955;-49
2022/06/11 05:07:22;;;;;;;;;;;18.20;26.50;;;;;;10241704;28;84835;-50
2022/06/11 05:12:23;;;;;;;;;;;18.30;15.00;;;;;;10241515;28;84533;-50
2022/06/11 05:17:24;;;;;;;;;;;18.40;1.00;;;;;;10243820;28;84938;-48
2022/06/11 05:22:24;;;;;;;;;;;18.50;1.00;;;;;;10243450;28;84112;-47
2022/06/11 05:27:25;;;;;;;;;;;18.60;1.00;;;;;;10241293;28;84962;-44
2022/06/11 05:32:29;;;;;;;;;;;18.70;1.00;;;;;;10249455;28;85030;-47
2022/06/11 05:37:30;;;;;;;;;;;18.90;1.00;;;;;;10245435;28;84127;-47
2022/06/11 05:42:30;;;;;;;;;;;19.10;1.00;;;;;;10249010;28;84217;-50
2022/06/11 05:47:33;;;;;;;;;;;19.20;1.00;;;;;;10249957;28;84159;-48
2022/06/11 05:52:37;;;;;;;;;;;19.30;1.00;;;;;;10249908;28;84186;-49
2022/06/11 05:57:37;;;;;;;;;;;19.40;1.00;;;;;;10225913;28;84896;-55
2022/06/11 06:02:40;;;;;;;;;;;19.50;1.00;;;;;;10209386;28;84838;-50
2022/06/11 06:07:40;;;;;;;;;;;19.80;1.00;;;;;;10209189;28;85033;-46
2022/06/11 06:12:41;;;;;;;;;;;19.90;1.00;;;;;;10234634;23;84701;-60
2022/06/11 06:17:42;;;;;;;;;;;19.90;1.00;;;;;;10249916;28;84854;-59
2022/06/11 06:22:43;;;;;;;;;;;20.10;1.00;;;;;;10264009;28;85996;-59
2022/06/11 06:27:43;;;;;;;;;;;20.30;1.00;;;;;;10249787;28;84917;-59
2022/06/11 06:32:44;;;;;;;;;;;20.40;1.00;;;;;;10249891;28;84874;-57
2022/06/11 06:37:44;;;;;;;;;;;20.30;99.90;;;;;;10249992;28;84300;-56
2022/06/11 06:42:45;;;;;;;;;;;20.40;99.90;;;;;;10248728;28;85080;-56
2022/06/11 06:47:45;;;;;;;;;;;20.50;99.90;;;;;;10246339;28;84980;-53
2022/06/11 06:52:46;;;;;;;;;;;20.90;99.90;;;;;;10240645;28;84734;-61
2022/06/11 06:57:47;;;;;;;;;;;21.60;50.10;;;;;;10236988;28;84907;-58
2022/06/11 07:02:49;;;;;;;;;;;21.70;1.00;;;;;;10237846;28;84156;-61
2022/06/11 07:07:49;;;;;;;;;;;21.50;1.00;;;;;;10242716;28;84989;-55
2022/06/11 07:12:50;;;;;;;;;;;21.30;1.00;;;;;;10244065;28;85101;-56
2022/06/11 07:18:00;;;;;;;;;;;21.30;99.90;;;;;;10243865;28;84206;-58
2022/06/11 07:23:08;;;;;;;;;;;21.50;1.00;;;;;;10239649;28;85775;-62
2022/06/11 07:28:13;;;;;;;;;;;21.70;99.90;;;;;;10240133;28;84841;-56
2022/06/11 07:33:16;;;;;;;;;;;21.70;99.90;;;;;;10243711;28;86191;-61
2022/06/11 07:38:18;;;;;;;;;;;22.30;1.00;;;;;;10243233;28;84190;-59
2022/06/11 07:43:19;;;;;;;;;;;22.40;1.70;;;;;;10232513;28;84971;-60
2022/06/11 07:48:20;;;;;;;;;;;22.30;1.00;;;;;;10224960;28;84101;-61
2022/06/11 07:53:21;;;;;;;;;;;22.80;99.90;;;;;;10239664;28;84117;-63
2022/06/11 07:58:30;;;;;;;;;;;23.60;1.00;;;;;;10223027;28;84122;-60
2022/06/11 08:03:32;;;;;;;;;;;24.20;99.90;;;;;;10241293;28;84918;-60
2022/06/11 08:08:33;;;;;;;;;;;24.40;1.00;;;;;;10241903;28;85323;-60
2022/06/11 08:13:33;;;;;;;;;;;24.50;1.00;;;;;;10242253;28;84913;-58
2022/06/11 08:18:34;;;;;;;;;;;24.70;1.00;;;;;;10237164;28;84596;-61
2022/06/11 08:23:36;;;;;;;;;;;25.40;99.90;;;;;;10240863;28;84239;-59
2022/06/11 08:28:37;;;;;;;;;;;25.10;2.20;;;;;;10243160;28;84343;-59
2022/06/11 08:33:37;;;;;;;;;;;25.00;37.10;;;;;;10236253;28;84605;-59
2022/06/11 08:38:38;;;;;;;;;;;25.20;1.00;;;;;;10220324;28;84214;-61
2022/06/11 08:43:41;;;;;;;;;;;26.00;99.90;;;;;;10213493;28;85335;-56
2022/06/11 08:48:42;;;;;;;;;;;26.50;1.00;;;;;;10238963;28;84234;-60
2022/06/11 08:53:42;;;;;;;;;;;26.60;1.00;;;;;;10242476;28;84126;-60
2022/06/11 08:58:51;;;;;;;;;;;27.20;99.90;;;;;;10242099;28;84799;-60
2022/06/11 09:03:51;;;;;;;;;;;26.90;99.90;;;;;;10220503;28;85349;-61
2022/06/11 09:09:01;;;;;;;;;;;26.30;99.90;;;;;;10239364;28;84280;-61
2022/06/11 09:14:07;;;;;;;;;;;25.80;99.90;;;;;;10208038;28;85029;-58
2022/06/11 09:19:26;;;;;;;;;;;26.00;99.90;;;;;;10243352;28;84202;-54
2022/06/11 09:24:27;;;;;;;;;;;26.90;99.90;;;;;;10245627;28;84107;-57
2022/06/11 09:29:27;;;;;;;;;;;27.10;99.90;;;;;;10242842;28;85463;-53
2022/06/11 09:34:28;;;;;;;;;;;26.30;13.40;;;;;;10239396;28;84679;-53
2022/06/11 09:39:37;;;;;;;;;;;26.10;37.60;;;;;;10241982;28;84977;-58
2022/06/11 09:44:38;;;;;;;;;;;26.90;9.80;;;;;;10239563;28;84804;-62
2022/06/11 09:49:48;;;;;;;;;;;26.40;32.60;;;;;;10206624;28;84951;-58
2022/06/11 09:54:51;;;;;;;;;;;26.10;42.00;;;;;;10205099;28;85959;-57
2022/06/11 09:59:55;;;;;;;;;;;26.50;99.90;;;;;;10245539;28;84136;-59
2022/06/11 10:04:58;;;;;;;;;;;26.60;87.80;;;;;;10245363;28;85290;-58
2022/06/11 10:10:05;;;;;;;;;;;26.80;99.90;;;;;;10244338;28;84261;-57
2022/06/11 10:15:09;;;;;;;;;;;27.00;96.60;;;;;;10244144;28;84244;-58
2022/06/11 10:20:17;;;;;;;;;;;28.50;90.20;;;;;;10250972;28;84142;-55
2022/06/11 10:25:27;;;;;;;;;;;29.70;4.30;;;;;;10251782;28;84852;-60
2022/06/11 10:30:38;;;;;;;;;;;28.90;1.00;;;;;;10252565;28;84179;-59
2022/06/11 10:35:45;;;;;;;;;;;29.10;1.00;;;;;;10250400;28;85759;-60
2022/06/11 10:40:47;;;;;;;;;;;29.10;1.00;;;;;;10250094;28;84955;-60
2022/06/11 10:45:48;;;;;;;;;;;27.90;1.00;;;;;;10250372;28;85184;-59
2022/06/11 10:50:49;;;;;;;;;;;27.20;1.00;;;;;;10250396;28;84073;-58
2022/06/11 10:55:51;;;;;;;;;;;26.60;1.00;;;;;;10250298;28;85071;-59
2022/06/11 11:00:54;;;;;;;;;;;26.40;1.00;;;;;;10250138;28;84942;-59
2022/06/11 11:06:04;;;;;;;;;;;26.60;1.00;;;;;;10249435;28;84993;-60
2022/06/11 11:11:08;;;;;;;;;;;26.80;1.00;;;;;;10250948;28;84865;-58
2022/06/11 11:16:11;;;;;;;;;;;27.40;1.00;;;;;;10249394;28;85234;-61
2022/06/11 11:21:21;;;;;;;;;;;28.10;1.00;;;;;;10250328;28;85127;-59
2022/06/11 11:26:33;;;;;;;;;;;28.50;1.00;;;;;;10244174;28;84730;-56
2022/06/11 11:31:48;;;;;;;;;;;28.50;1.00;;;;;;10244666;28;85892;-60
2022/06/11 11:36:48;;;;;;;;;;;30.00;1.00;;;;;;10240836;28;86722;-65
2022/06/11 11:42:04;;;;;;;;;;;31.40;1.00;;;;;;10259784;28;84975;-64
2022/06/11 11:47:11;;;;;;;;;;;31.60;1.00;;;;;;10223632;28;86068;-63
2022/06/11 11:52:15;;;;;;;;;;;32.60;1.00;;;;;;10245798;28;84206;-59
2022/06/11 11:57:16;;;;;;;;;;;31.20;1.00;;;;;;10245166;28;87161;-59
2022/06/11 12:02:19;;;;;;;;;;;29.90;1.00;;;;;;10242364;28;85956;-58
2022/06/11 12:07:29;;;;;;;;;;;30.40;1.00;;;;;;10245335;28;84976;-61
2022/06/11 12:17:52;;;;;;;;;;;30.80;1.00;;;;;;10264307;28;84284;-48
2022/06/11 12:22:57;;;;;;;;;;;30.30;1.00;;;;;;10268773;28;84116;-53
2022/06/11 12:27:59;;;;;;;;;;;30.00;1.00;;;;;;10245798;28;84293;-49
2022/06/11 12:33:00;;;;;;;;;;;30.50;1.00;;;;;;10225172;28;86484;-48
2022/06/11 12:38:21;;;;;;;;;;;31.60;1.00;;;;;;10243470;28;84206;-51
2022/06/11 12:43:30;;;;;;;;;;;30.90;1.00;;;;;;10229216;28;86030;-51
2022/06/11 12:48:31;;;;;;;;;;;29.90;1.00;;;;;;10229902;28;84117;-50
2022/06/11 12:53:43;;;;;;;;;;;29.40;1.00;;;;;;10245698;28;84188;-48
2022/06/11 12:58:59;;;;;;;;;;;30.50;1.00;;;;;;10228555;28;84993;-48
2022/06/11 13:04:18;;;;;;;;;;;31.70;1.00;;;;;;10245967;28;84097;-52
2022/06/11 13:09:22;;;;;;;;;;;32.50;1.00;;;;;;10245939;28;84342;-48
2022/06/11 13:14:32;;;;;;;;;;;32.70;1.00;;;;;;10240716;28;84953;-47
2022/06/11 13:19:53;;;;;;;;;;;32.50;1.00;;;;;;10231419;28;84303;-54
2022/06/11 13:25:32;;;;;;;;;;;32.50;1.00;;;;;;10223811;28;84128;-51
2022/06/11 13:30:41;;;;;;;;;;;32.50;1.00;;;;;;10146391;28;84988;-55
2022/06/11 13:35:46;;;;;;;;;;;31.50;1.00;;;;;;10222508;28;84263;-49
2022/06/11 13:41:02;;;;;;;;;;;31.30;1.00;;;;;;10240619;28;84745;-48
2022/06/11 13:46:03;;;;;;;;;;;30.80;1.00;;;;;;10209815;28;85047;-52
2022/06/11 13:51:13;;;;;;;;;;;30.40;1.00;;;;;;10239569;28;85319;-50
2022/06/11 13:56:20;;;;;;;;;;;30.30;1.00;;;;;;10247410;28;84922;-47
2022/06/11 14:01:31;;;;;;;;;;;29.70;1.00;;;;;;10230156;28;84908;-48
2022/06/11 14:06:34;;;;;;;;;;;28.70;1.00;;;;;;10245655;28;85398;-50
2022/06/11 14:11:35;;;;;;;;;;;28.50;1.00;;;;;;10265739;28;84986;-49
2022/06/11 14:16:37;;;;;;;;;;;28.00;1.00;;;;;;10238370;28;84499;-50
2022/06/11 14:21:38;;;;;;;;;;;27.40;1.00;;;;;;10229453;28;84266;-45
2022/06/11 14:26:50;;;;;;;;;;;27.50;1.00;;;;;;10247129;28;84922;-46
2022/06/11 14:31:56;;;;;;;;;;;27.40;1.00;;;;;;10251340;28;85619;-47
2022/06/11 14:37:14;;;;;;;;;;;27.30;1.00;;;;;;10236351;28;86217;-48
2022/06/11 14:42:18;;;;;;;;;;;27.40;1.00;;;;;;10239602;28;84449;-49
2022/06/11 14:47:45;;;;;;;;;;;27.60;1.00;;;;;;10237831;28;84686;-48
2022/06/11 14:52:47;;;;;;;;;;;27.00;1.00;;;;;;10252911;28;84191;-46
2022/06/11 14:57:59;;;;;;;;;;;26.90;1.00;;;;;;10257165;28;84770;-51
2022/06/11 15:03:06;;;;;;;;;;;26.90;1.00;;;;;;10232067;28;84284;-47
2022/06/11 15:08:07;;;;;;;;;;;27.00;1.00;;;;;;10235800;28;84924;-51
2022/06/11 15:13:08;;;;;;;;;;;26.90;1.00;;;;;;10216334;28;84044;-51
2022/06/11 15:18:24;;;;;;;;;;;27.10;1.00;;;;;;10219386;28;84286;-55
2022/06/11 15:23:39;;;;;;;;;;;26.80;1.00;;;;;;10220202;28;85211;-47
2022/06/11 15:28:58;;;;;;;;;;;26.80;1.00;;;;;;10215870;28;84539;-48
2022/06/11 15:34:00;;;;;;;;;;;26.70;1.00;;;;;;10250095;28;86517;-54
2022/06/11 15:39:02;;;;;;;;;;;26.10;1.00;;;;;;10236990;28;84748;-52
2022/06/11 15:44:16;;;;;;;;;;;26.30;1.00;;;;;;10256599;28;84753;-47
2022/06/11 15:49:27;;;;;;;;;;;26.20;1.00;;;;;;10243074;28;84660;-50
2022/06/11 15:59:48;;;;;;;;;;;25.70;1.00;;;;;;10252904;28;84963;-49
2022/06/11 16:04:49;;;;;;;;;;;25.50;1.00;;;;;;10221901;28;84551;-49
2022/06/11 16:09:51;;;;;;;;;;;25.50;1.00;;;;;;10228100;28;85008;-52
2022/06/11 16:14:53;;;;;;;;;;;25.40;1.00;;;;;;10228070;28;84151;-49
2022/06/11 16:19:55;;;;;;;;;;;25.10;1.00;;;;;;10231276;28;84103;-50
2022/06/11 16:25:01;;;;;;;;;;;25.20;1.00;;;;;;10230394;28;84949;-52
2022/06/11 16:30:04;;;;;;;;;;;25.10;13.30;;;;;;10264964;28;84489;-47
2022/06/11 16:35:13;;;;;;;;;;;25.10;55.30;;;;;;10217507;28;86245;-47
2022/06/11 16:40:26;;;;;;;;;;;25.00;99.90;;;;;;10238582;28;84821;-51
2022/06/11 16:45:28;;;;;;;;;;;25.00;99.90;;;;;;10220741;28;84217;-51
2022/06/11 16:56:09;;;;;;;;;;;25.10;51.70;;;;;;10225451;28;84894;-49
2022/06/11 17:01:12;;;;;;;;;;;25.00;97.40;;;;;;10227156;28;84927;-46
2022/06/11 17:06:23;;;;;;;;;;;25.00;78.10;;;;;;10220289;28;86160;-52
2022/06/11 17:11:25;;;;;;;;;;;24.90;47.00;;;;;;10208186;28;85281;-51
2022/06/11 17:16:26;;;;;;;;;;;24.70;99.90;;;;;;10196267;28;86695;-49
2022/06/11 17:21:36;;;;;;;;;;;24.60;99.90;;;;;;10243721;28;85169;-52
2022/06/11 17:26:39;;;;;;;;;;;24.50;99.90;;;;;;10227808;28;85049;-52
2022/06/11 17:31:40;;;;;;;;;;;24.40;99.90;;;;;;10236140;28;84247;-61
2022/06/11 17:36:42;;;;;;;;;;;24.40;99.90;;;;;;10253189;28;84215;-66
2022/06/11 17:41:43;;;;;;;;;;;24.30;99.90;;;;;;10249586;28;84272;-55
2022/06/11 17:46:44;;;;;;;;;;;24.20;99.90;;;;;;10222603;28;85324;-50
2022/06/11 17:51:46;;;;;;;;;;;24.20;99.90;;;;;;10251297;28;87061;-63
2022/06/11 17:56:46;;;;;;;;;;;24.20;99.90;;;;;;10245866;28;84816;-50
2022/06/11 18:01:47;;;;;;;;;;;24.10;99.90;;;;;;10259101;28;85291;-50
2022/06/11 18:06:48;;;;;;;;;;;23.80;99.90;;;;;;10235484;28;84273;-47
2022/06/11 18:11:49;;;;;;;;;;;23.70;1.00;;;;;;10253754;28;84400;-55
2022/06/11 18:16:50;;;;;;;;;;;23.80;1.00;;;;;;10303599;22;86568;-52
2022/06/11 18:27:17;;;;;;;;;;;23.70;1.00;;;;;;10294547;28;84874;-57
2022/06/11 18:32:19;;;;;;;;;;;23.70;1.00;;;;;;10314505;28;84792;-51
2022/06/11 18:37:19;;;;;;;;;;;23.60;1.00;;;;;;10313486;28;84115;-52
2022/06/11 18:42:20;;;;;;;;;;;23.40;1.00;;;;;;10309480;28;84339;-53
2022/06/11 18:47:20;;;;;;;;;;;23.40;1.00;;;;;;10312489;28;84312;-52
2022/06/11 18:52:22;;;;;;;;;;;23.30;1.00;;;;;;10295318;28;86698;-48
2022/06/11 18:57:22;;;;;;;;;;;23.20;1.00;;;;;;10288593;28;84386;-50
2022/06/11 19:02:23;;;;;;;;;;;23.10;1.00;;;;;;10288459;28;84290;-50
2022/06/11 19:07:25;;;;;;;;;;;23.10;34.90;;;;;;10298684;28;84854;-48
2022/06/11 19:12:25;;;;;;;;;;;23.00;99.90;;;;;;10309907;28;84907;-50
2022/06/11 19:17:26;;;;;;;;;;;22.90;1.00;;;;;;10306546;28;84218;-48
2022/06/11 19:22:26;;;;;;;;;;;22.80;1.00;;;;;;10308445;28;84218;-48
2022/06/11 19:27:27;;;;;;;;;;;22.70;99.90;;;;;;10298339;28;84230;-50
2022/06/11 19:32:28;;;;;;;;;;;22.60;1.00;;;;;;10308389;28;84939;-50
2022/06/11 19:37:29;;;;;;;;;;;22.50;1.00;;;;;;10292152;28;84220;-51
2022/06/11 19:42:29;;;;;;;;;;;22.40;99.90;;;;;;10288830;28;85116;-54
2022/06/11 19:47:31;;;;;;;;;;;22.30;1.00;;;;;;10286971;28;84870;-49
2022/06/11 19:52:34;;;;;;;;;;;22.20;1.00;;;;;;10291407;28;84305;-48
2022/06/11 19:57:35;;;;;;;;;;;22.10;99.90;;;;;;10287223;28;84320;-49
2022/06/11 20:02:36;;;;;;;;;;;22.00;1.00;;;;;;10284707;28;85131;-53
2022/06/11 20:07:37;;;;;;;;;;;22.00;1.00;;;;;;10286964;28;84727;-52
2022/06/11 20:12:37;;;;;;;;;;;21.90;1.00;;;;;;10286729;28;84692;-53
2022/06/11 20:17:38;;;;;;;;;;;22.00;1.00;;;;;;10285344;28;85726;-49
2022/06/11 20:22:39;;;;;;;;;;;21.90;99.90;;;;;;10280398;28;85602;-50
2022/06/11 20:27:40;;;;;;;;;;;21.70;1.00;;;;;;10295634;28;85603;-47
2022/06/11 20:32:40;;;;;;;;;;;21.50;99.90;;;;;;10284202;28;86036;-47
2022/06/11 20:37:42;;;;;;;;;;;21.50;1.00;;;;;;10286236;28;84994;-51
2022/06/11 20:42:42;;;;;;;;;;;21.40;18.50;;;;;;10289308;28;84958;-53
2022/06/11 20:47:43;;;;;;;;;;;21.30;99.90;;;;;;10304711;28;84908;-48
2022/06/11 20:52:43;;;;;;;;;;;21.20;95.70;;;;;;10285435;28;84216;-48
2022/06/11 20:57:44;;;;;;;;;;;21.20;1.00;;;;;;10286810;28;84086;-48
2022/06/11 21:02:46;;;;;;;;;;;21.10;1.00;;;;;;10285189;28;84956;-51
2022/06/11 21:13:06;;;;;;;;;;;20.80;1.00;;;;;;10287017;28;86033;-48
2022/06/11 21:18:07;;;;;;;;;;;20.70;8.00;;;;;;10300204;28;84389;-52
2022/06/11 21:23:08;;;;;;;;;;;20.60;1.00;;;;;;10300077;28;84252;-50
2022/06/11 21:28:12;;;;;;;;;;;20.60;1.00;;;;;;10281804;28;84865;-52
2022/06/11 21:33:14;;;;;;;;;;;20.60;99.90;;;;;;10282869;28;85056;-49
2022/06/11 21:38:14;;;;;;;;;;;20.60;1.00;;;;;;10285331;28;84156;-50
2022/06/11 21:43:15;;;;;;;;;;;20.50;99.90;;;;;;10285443;28;84212;-50
2022/06/11 21:48:15;;;;;;;;;;;20.40;99.90;;;;;;10286406;28;84240;-50
2022/06/11 21:53:16;;;;;;;;;;;20.30;1.00;;;;;;10284463;28;85003;-50
2022/06/11 21:58:17;;;;;;;;;;;20.20;1.00;;;;;;10283494;28;84845;-48
2022/06/11 22:03:17;;;;;;;;;;;20.20;1.00;;;;;;10282408;28;87930;-53
2022/06/11 22:08:18;;;;;;;;;;;20.20;1.00;;;;;;10285706;28;85233;-46
2022/06/11 22:13:18;;;;;;;;;;;20.10;1.00;;;;;;10288041;28;84942;-53
2022/06/11 22:18:19;;;;;;;;;;;20.10;1.00;;;;;;10292773;28;84907;-51
2022/06/11 22:23:20;;;;;;;;;;;20.00;1.00;;;;;;10290398;28;87374;-50
2022/06/11 22:28:21;;;;;;;;;;;19.80;1.00;;;;;;10292096;28;84336;-48
2022/06/11 22:33:22;;;;;;;;;;;19.80;1.00;;;;;;10290568;28;84743;-48
2022/06/11 22:38:22;;;;;;;;;;;19.70;47.80;;;;;;10289462;28;85494;-49
2022/06/11 22:43:23;;;;;;;;;;;19.60;99.90;;;;;;10290968;28;84108;-49
2022/06/11 22:48:24;;;;;;;;;;;19.50;99.90;;;;;;10290763;28;84932;-51
2022/06/11 22:53:25;;;;;;;;;;;19.50;99.90;;;;;;10291727;28;84190;-50
2022/06/11 22:58:25;;;;;;;;;;;19.40;99.90;;;;;;10290001;28;84186;-48
2022/06/11 23:03:26;;;;;;;;;;;19.30;1.00;;;;;;10291706;28;84216;-46
2022/06/11 23:08:27;;;;;;;;;;;19.20;1.00;;;;;;10288196;28;85235;-50
2022/06/11 23:13:30;;;;;;;;;;;19.20;1.00;;;;;;10289987;28;85397;-47
2022/06/11 23:18:30;;;;;;;;;;;19.20;99.90;;;;;;10291558;28;84145;-48
2022/06/11 23:23:32;;;;;;;;;;;19.20;1.00;;;;;;10289598;28;84876;-47
2022/06/11 23:28:33;;;;;;;;;;;19.10;1.00;;;;;;10257076;28;84601;-50
2022/06/11 23:33:33;;;;;;;;;;;19.10;1.00;;;;;;10250591;28;84171;-46
2022/06/11 23:38:34;;;;;;;;;;;19.00;1.00;;;;;;10252120;28;84821;-49
2022/06/11 23:43:35;;;;;;;;;;;19.00;99.90;;;;;;10261210;28;84400;-51
2022/06/11 23:48:38;;;;;;;;;;;19.00;1.00;;;;;;10274227;28;85682;-50
2022/06/11 23:53:39;;;;;;;;;;;19.00;1.00;;;;;;10288261;28;84037;-51
2022/06/11 23:58:39;;;;;;;;;;;19.10;99.90;;;;;;10288334;28;84871;-51
